Time;durP1;ratioP1;P1;durP2;ratioP2;P2;SDS_P1;SDS_P2;PMS_P1;PMS_P2;Temp;Humidity;BMP_temperature;BMP_pressure;BME280_temperature;BME280_humidity;BME280_pressure;Samples;Min_cycle;Max_cycle;Signal;HPM_P1;HPM_P2
2022/10/05 00:01:39;;;;;;;4.90;3.60;;;18.30;65.00;;;;;;5034884;28;20195;-70
2022/10/05 00:04:15;;;;;;;6.32;3.42;;;18.20;65.00;;;;;;5050503;28;20199;-71
2022/10/05 00:06:44;;;;;;;4.93;3.30;;;18.20;65.00;;;;;;5051592;28;20202;-71
2022/10/05 00:09:21;;;;;;;3.67;3.22;;;18.30;65.10;;;;;;5050933;28;20189;-70
2022/10/05 00:11:47;;;;;;;5.30;3.92;;;18.20;64.90;;;;;;5053104;28;20232;-70
2022/10/05 00:14:19;;;;;;;3.92;3.53;;;18.30;65.00;;;;;;5056352;28;20305;-70
2022/10/05 00:16:44;;;;;;;5.32;3.70;;;18.20;64.90;;;;;;5056773;28;20633;-70
2022/10/05 00:19:18;;;;;;;3.40;3.10;;;18.20;64.90;;;;;;5055678;28;20179;-70
2022/10/05 00:21:44;;;;;;;4.65;3.70;;;18.20;64.90;;;;;;5039637;28;20175;-70
2022/10/05 00:24:10;;;;;;;3.65;3.05;;;18.20;64.90;;;;;;5056453;28;20240;-70
2022/10/05 00:26:35;;;;;;;4.47;3.67;;;18.20;64.90;;;;;;5055986;28;20684;-70
2022/10/05 00:29:01;;;;;;;5.13;3.50;;;18.20;64.90;;;;;;5055044;28;20175;-70
2022/10/05 00:31:30;;;;;;;4.10;3.58;;;18.20;64.90;;;;;;5054526;28;20175;-70
2022/10/05 00:33:55;;;;;;;5.00;3.75;;;18.20;64.90;;;;;;5055466;28;20182;-70
2022/10/05 00:36:21;;;;;;;3.47;3.08;;;18.20;64.90;;;;;;5054996;28;20167;-70
2022/10/05 00:38:46;;;;;;;4.82;3.70;;;18.20;64.90;;;;;;5054172;28;20587;-70
2022/10/05 00:41:50;;;;;;;3.60;3.20;;;18.20;64.90;;;;;;5056022;28;20657;-70
2022/10/05 00:44:24;;;;;;;3.97;3.15;;;18.20;64.90;;;;;;5056188;28;20175;-70
2022/10/05 00:46:55;;;;;;;3.78;3.40;;;18.20;64.90;;;;;;5055557;28;20207;-70
2022/10/05 00:49:34;;;;;;;3.83;3.33;;;18.20;64.90;;;;;;5055538;28;20183;-70
2022/10/05 00:52:05;;;;;;;3.97;3.20;;;18.20;64.90;;;;;;5055900;28;20190;-71
2022/10/05 00:54:39;;;;;;;4.68;3.22;;;18.20;64.90;;;;;;5055399;28;20232;-70
2022/10/05 00:57:19;;;;;;;4.15;3.30;;;18.20;64.90;;;;;;5054126;28;20187;-70
2022/10/05 00:59:52;;;;;;;4.97;2.95;;;18.20;64.90;;;;;;5055181;28;20270;-70
2022/10/05 01:02:32;;;;;;;4.05;3.30;;;18.20;64.90;;;;;;5053940;28;20174;-70
2022/10/05 01:05:02;;;;;;;5.18;3.63;;;18.20;64.90;;;;;;5053949;28;20187;-70
2022/10/05 01:07:58;;;;;;;3.92;3.47;;;18.20;64.90;;;;;;5053776;28;20237;-70
2022/10/05 01:10:34;;;;;;;6.05;4.03;;;18.20;65.00;;;;;;5018403;28;20242;-70
2022/10/05 01:12:59;;;;;;;4.50;3.50;;;18.20;64.90;;;;;;5033513;28;20231;-70
2022/10/05 01:15:32;;;;;;;3.50;3.20;;;18.20;65.00;;;;;;5042761;28;20186;-70
2022/10/05 01:18:21;;;;;;;3.95;3.38;;;18.20;65.00;;;;;;5054640;28;20629;-70
2022/10/05 01:21:01;;;;;;;5.03;3.47;;;18.20;65.00;;;;;;5053684;28;20229;-70
2022/10/05 01:24:01;;;;;;;4.35;3.47;;;18.20;65.00;;;;;;5053873;28;20182;-70
2022/10/05 01:26:44;;;;;;;3.30;3.00;;;18.20;64.90;;;;;;5054954;28;20194;-71
2022/10/05 01:29:23;;;;;;;3.67;3.10;;;18.20;64.90;;;;;;5053261;28;20179;-71
2022/10/05 01:31:58;;;;;;;3.35;3.00;;;18.20;64.90;;;;;;5054176;28;20179;-70
2022/10/05 01:34:41;;;;;;;4.38;3.55;;;18.20;65.00;;;;;;5055109;28;20175;-70
2022/10/05 01:37:14;;;;;;;4.05;3.63;;;18.20;65.00;;;;;;5053279;28;20187;-70
2022/10/05 01:39:43;;;;;;;4.30;3.25;;;18.20;65.00;;;;;;5054036;28;20179;-69
2022/10/05 01:42:17;;;;;;;3.70;3.13;;;18.20;65.00;;;;;;5054345;28;20524;-70
2022/10/05 01:44:50;;;;;;;4.43;3.80;;;18.20;65.00;;;;;;5053704;28;20537;-70
2022/10/05 01:47:23;;;;;;;4.25;3.72;;;18.20;65.00;;;;;;5053522;28;20211;-70
2022/10/05 01:50:03;;;;;;;5.38;3.40;;;18.20;65.00;;;;;;5054101;28;20171;-70
2022/10/05 01:52:35;;;;;;;3.58;3.28;;;18.20;65.00;;;;;;5053097;28;20250;-70
2022/10/05 01:55:09;;;;;;;5.40;3.38;;;18.10;65.00;;;;;;5053002;28;20187;-70
2022/10/05 01:58:19;;;;;;;4.25;3.85;;;18.20;65.00;;;;;;5054095;28;20174;-70
2022/10/05 02:00:53;;;;;;;3.20;2.90;;;18.10;65.00;;;;;;5039918;28;20261;-70
2022/10/05 02:03:35;;;;;;;3.80;3.40;;;18.10;65.00;;;;;;5037086;28;20181;-70
2022/10/05 02:06:16;;;;;;;3.38;3.10;;;18.10;65.10;;;;;;5036991;28;20194;-70
2022/10/05 02:08:45;;;;;;;3.83;3.17;;;18.20;65.00;;;;;;5053524;28;20254;-70
2022/10/05 02:11:11;;;;;;;5.13;3.40;;;18.10;65.00;;;;;;5052703;28;20171;-70
2022/10/05 02:13:52;;;;;;;3.70;3.28;;;18.10;65.10;;;;;;5052977;28;20617;-70
2022/10/05 02:16:23;;;;;;;5.45;3.40;;;18.10;65.10;;;;;;5034921;28;20262;-70
2022/10/05 02:18:54;;;;;;;4.40;3.38;;;18.10;65.00;;;;;;5033836;28;20186;-70
2022/10/05 02:21:20;;;;;;;3.33;3.03;;;18.10;65.00;;;;;;5033257;28;20168;-70
2022/10/05 02:23:45;;;;;;;3.58;3.25;;;18.10;65.10;;;;;;5034226;28;20176;-70
2022/10/05 02:26:11;;;;;;;4.75;3.63;;;18.10;65.10;;;;;;5051512;28;20559;-70
2022/10/05 02:28:43;;;;;;;3.50;3.20;;;18.10;65.00;;;;;;5054047;28;20582;-70
2022/10/05 02:31:14;;;;;;;3.60;3.30;;;18.10;65.50;;;;;;5052223;28;20178;-71
2022/10/05 02:33:39;;;;;;;3.97;3.58;;;18.10;65.10;;;;;;5052495;28;20254;-70
2022/10/05 02:36:28;;;;;;;3.45;3.15;;;18.10;65.10;;;;;;5053030;28;20214;-70
2022/10/05 02:39:02;;;;;;;3.88;3.30;;;18.10;65.20;;;;;;5052372;28;20210;-70
2022/10/05 02:41:59;;;;;;;3.55;3.25;;;18.10;65.10;;;;;;5052620;28;20183;-70
2022/10/05 02:45:00;;;;;;;3.58;3.25;;;18.10;65.10;;;;;;5052503;28;20187;-70
2022/10/05 02:47:33;;;;;;;3.60;2.88;;;18.10;65.10;;;;;;5050505;28;20218;-70
2022/10/05 02:50:07;;;;;;;3.55;3.25;;;18.10;65.10;;;;;;5052744;28;20179;-70
2022/10/05 02:52:32;;;;;;;3.85;3.28;;;18.10;65.10;;;;;;5051415;28;20179;-70
2022/10/05 02:55:14;;;;;;;4.75;3.40;;;18.10;65.20;;;;;;5053556;28;20304;-70
2022/10/05 02:57:45;;;;;;;3.60;3.30;;;18.10;65.10;;;;;;5036764;28;20641;-71
2022/10/05 03:00:21;;;;;;;3.60;3.30;;;18.10;65.10;;;;;;5052512;28;20641;-70
2022/10/05 03:02:53;;;;;;;3.97;3.47;;;18.10;65.20;;;;;;5034944;28;20198;-71
2022/10/05 03:05:22;;;;;;;4.43;3.55;;;18.10;65.20;;;;;;5052293;28;20222;-71
2022/10/05 03:07:49;;;;;;;4.30;3.47;;;18.10;65.70;;;;;;5051915;28;20215;-71
2022/10/05 03:10:23;;;;;;;3.67;3.08;;;18.10;65.30;;;;;;5053341;28;20581;-70
2022/10/05 03:13:21;;;;;;;3.95;3.30;;;18.10;65.20;;;;;;5053253;28;20244;-69
2022/10/05 03:16:02;;;;;;;4.07;3.63;;;18.10;65.40;;;;;;5052598;28;20636;-72
2022/10/05 03:18:34;;;;;;;3.20;2.90;;;18.10;65.50;;;;;;5052605;28;20183;-70
2022/10/05 03:21:13;;;;;;;3.78;3.47;;;18.10;65.40;;;;;;5052386;28;20167;-71
2022/10/05 03:24:09;;;;;;;3.05;2.72;;;18.10;65.60;;;;;;5051805;28;20175;-71
2022/10/05 03:27:14;;;;;;;4.43;3.50;;;18.10;65.20;;;;;;5052376;28;20238;-71
2022/10/05 03:29:49;;;;;;;3.83;3.47;;;18.10;65.20;;;;;;5051683;28;20175;-71
2022/10/05 03:32:30;;;;;;;3.83;3.17;;;18.10;65.20;;;;;;5052258;28;20189;-72
2022/10/05 03:35:11;;;;;;;4.25;3.83;;;18.10;65.30;;;;;;5051290;28;20207;-70
2022/10/05 03:38:18;;;;;;;4.38;3.55;;;18.10;65.30;;;;;;5036749;28;20649;-70
2022/10/05 03:40:56;;;;;;;3.38;3.10;;;18.10;65.70;;;;;;5052123;28;20170;-70
2022/10/05 03:43:45;;;;;;;3.80;3.35;;;18.00;65.30;;;;;;5035079;28;20672;-70
2022/10/05 03:46:39;;;;;;;3.88;3.50;;;18.10;65.30;;;;;;5050892;28;20175;-70
2022/10/05 03:49:32;;;;;;;3.70;3.33;;;18.10;65.40;;;;;;5050549;28;20190;-70
2022/10/05 03:52:12;;;;;;;3.83;2.85;;;18.10;65.40;;;;;;5050961;28;20186;-70
2022/10/05 03:54:53;;;;;;;5.72;4.22;;;18.00;65.30;;;;;;5052135;28;20549;-70
2022/10/05 03:57:31;;;;;;;4.30;3.40;;;18.10;65.40;;;;;;5050632;28;20171;-70
2022/10/05 04:00:04;;;;;;;3.90;3.50;;;18.10;65.50;;;;;;5051538;28;20258;-69
2022/10/05 04:02:29;;;;;;;3.60;3.30;;;18.10;65.40;;;;;;5050498;28;20182;-70
2022/10/05 04:05:01;;;;;;;3.75;3.45;;;18.10;65.50;;;;;;5052401;28;20221;-70
2022/10/05 04:07:46;;;;;;;3.25;2.95;;;18.10;66.10;;;;;;5052606;28;20207;-70
2022/10/05 04:10:28;;;;;;;3.83;3.53;;;18.00;65.70;;;;;;5051966;28;20177;-70
2022/10/05 04:13:05;;;;;;;8.10;3.88;;;18.00;65.40;;;;;;5051277;28;20222;-69
2022/10/05 04:15:44;;;;;;;3.47;3.28;;;18.00;65.40;;;;;;5036464;28;20289;-69
2022/10/05 04:18:39;;;;;;;3.55;3.30;;;18.00;65.40;;;;;;5035029;28;20599;-70
2022/10/05 04:21:27;;;;;;;3.65;3.35;;;18.00;65.40;;;;;;5037169;28;20642;-70
2022/10/05 04:24:10;;;;;;;4.03;3.15;;;18.00;65.60;;;;;;5050558;28;20182;-70
2022/10/05 04:26:51;;;;;;;4.65;3.45;;;18.00;65.30;;;;;;5051928;28;20225;-69
2022/10/05 04:29:39;;;;;;;3.97;3.17;;;18.00;65.60;;;;;;5050932;28;20623;-71
2022/10/05 04:32:14;;;;;;;3.50;3.20;;;18.00;65.40;;;;;;5051096;28;20178;-71
2022/10/05 04:34:47;;;;;;;4.20;3.80;;;18.10;65.50;;;;;;5052438;28;20205;-70
2022/10/05 04:37:21;;;;;;;3.40;3.10;;;18.00;65.90;;;;;;5050911;28;20233;-70
2022/10/05 04:40:05;;;;;;;3.28;2.97;;;18.00;65.50;;;;;;5034897;28;20179;-70
2022/10/05 04:42:37;;;;;;;3.75;3.00;;;18.00;65.60;;;;;;5050968;28;20175;-70
2022/10/05 04:45:32;;;;;;;3.95;3.55;;;18.00;65.60;;;;;;5049949;28;20260;-70
2022/10/05 04:48:22;;;;;;;3.90;3.50;;;18.00;65.50;;;;;;5043108;28;20231;-70
2022/10/05 04:50:51;;;;;;;3.45;2.90;;;18.00;65.40;;;;;;5051106;28;20225;-70
2022/10/05 04:53:30;;;;;;;3.28;2.97;;;18.00;65.90;;;;;;5050765;28;20190;-70
2022/10/05 04:56:10;;;;;;;3.38;3.08;;;18.00;65.50;;;;;;5050081;28;20175;-71
2022/10/05 04:58:42;;;;;;;3.70;3.40;;;18.00;65.50;;;;;;5036064;28;20592;-71
2022/10/05 05:01:22;;;;;;;3.67;3.38;;;18.00;65.70;;;;;;5054750;28;20182;-70
2022/10/05 05:03:51;;;;;;;3.50;3.20;;;18.00;65.50;;;;;;5055641;28;20261;-71
2022/10/05 05:06:29;;;;;;;3.53;3.22;;;18.00;66.30;;;;;;5053474;28;20183;-71
2022/10/05 05:09:21;;;;;;;3.40;3.20;;;18.00;65.60;;;;;;5053930;28;20719;-71
2022/10/05 05:12:13;;;;;;;3.55;3.25;;;18.00;65.50;;;;;;5046407;28;20179;-70
2022/10/05 05:14:59;;;;;;;3.00;2.70;;;18.00;65.70;;;;;;5053303;28;20225;-70
2022/10/05 05:17:55;;;;;;;3.20;3.00;;;18.00;65.60;;;;;;5054470;28;20684;-70
2022/10/05 05:20:50;;;;;;;3.40;3.10;;;18.00;65.50;;;;;;5054396;28;20187;-70
2022/10/05 05:23:31;;;;;;;3.45;3.13;;;18.00;65.50;;;;;;5034217;28;20180;-70
2022/10/05 05:26:21;;;;;;;3.88;3.58;;;18.00;65.50;;;;;;5033319;28;20180;-71
2022/10/05 05:29:04;;;;;;;3.50;3.17;;;18.00;65.80;;;;;;5032381;28;20706;-70
2022/10/05 05:31:48;;;;;;;3.85;2.85;;;18.00;65.60;;;;;;5044059;28;20221;-71
2022/10/05 05:34:37;;;;;;;3.78;3.47;;;18.00;65.60;;;;;;5054450;28;20198;-71
2022/10/05 05:37:43;;;;;;;3.78;3.25;;;18.00;65.60;;;;;;5054939;28;20182;-71
2022/10/05 05:40:16;;;;;;;3.88;2.83;;;18.00;65.60;;;;;;5021605;28;20195;-70
2022/10/05 05:42:54;;;;;;;2.97;2.72;;;18.00;65.60;;;;;;5014662;28;20229;-70
2022/10/05 05:45:33;;;;;;;3.40;3.08;;;18.00;65.80;;;;;;5034085;28;20192;-70
2022/10/05 05:47:59;;;;;;;3.15;2.85;;;18.00;65.70;;;;;;5048149;28;20681;-70
2022/10/05 05:50:36;;;;;;;3.38;3.08;;;18.00;65.60;;;;;;5053490;28;20172;-71
2022/10/05 05:53:13;;;;;;;3.25;2.95;;;18.00;65.70;;;;;;5054660;28;20189;-70
2022/10/05 05:55:41;;;;;;;3.45;3.15;;;18.00;65.50;;;;;;5036570;28;20536;-71
2022/10/05 05:58:16;;;;;;;3.20;2.90;;;18.00;65.60;;;;;;5037114;28;20183;-71
2022/10/05 06:01:27;;;;;;;3.42;2.95;;;18.00;66.20;;;;;;5054591;28;20170;-71
2022/10/05 06:03:58;;;;;;;2.85;2.65;;;18.00;65.70;;;;;;5048658;28;20187;-71
2022/10/05 06:06:30;;;;;;;3.85;3.22;;;18.00;65.50;;;;;;5053195;28;20641;-72
2022/10/05 06:08:57;;;;;;;3.28;2.92;;;18.00;65.50;;;;;;5052683;28;20608;-71
2022/10/05 06:11:26;;;;;;;3.25;2.92;;;17.90;66.30;;;;;;5053089;28;20529;-71
2022/10/05 06:13:53;;;;;;;3.45;3.08;;;18.00;65.60;;;;;;5053258;28;20234;-71
2022/10/05 06:16:33;;;;;;;3.65;3.10;;;18.00;65.90;;;;;;5035971;28;20179;-71
2022/10/05 06:19:09;;;;;;;4.50;2.75;;;18.00;65.70;;;;;;5053335;28;20171;-71
2022/10/05 06:21:56;;;;;;;3.13;2.90;;;18.00;66.20;;;;;;5037219;28;20182;-72
2022/10/05 06:24:24;;;;;;;3.30;3.00;;;18.00;65.90;;;;;;5052813;28;20612;-72
2022/10/05 06:26:55;;;;;;;3.60;3.30;;;18.00;65.90;;;;;;5053051;28;20568;-72
2022/10/05 06:29:22;;;;;;;5.47;3.13;;;18.00;65.70;;;;;;5053955;28;20185;-72
2022/10/05 06:32:01;;;;;;;3.38;3.03;;;18.00;65.90;;;;;;5035529;28;20270;-72
2022/10/05 06:35:03;;;;;;;3.30;3.00;;;18.00;65.80;;;;;;5053183;28;20259;-71
2022/10/05 06:37:51;;;;;;;3.80;3.05;;;18.00;65.80;;;;;;5052127;28;20548;-71
2022/10/05 06:40:23;;;;;;;3.60;3.05;;;17.90;65.80;;;;;;5053441;28;20175;-71
2022/10/05 06:43:04;;;;;;;3.20;2.90;;;17.90;65.90;;;;;;5053135;28;20179;-72
2022/10/05 06:45:53;;;;;;;8.55;3.15;;;17.90;66.10;;;;;;5052123;28;20171;-68
2022/10/05 06:48:29;;;;;;;4.45;3.70;;;18.00;65.90;;;;;;5052337;28;20215;-68
2022/10/05 06:51:03;;;;;;;4.88;3.20;;;18.00;65.90;;;;;;5052409;28;20232;-68
2022/10/05 06:53:42;;;;;;;4.28;3.20;;;18.00;66.40;;;;;;5052877;28;20231;-68
2022/10/05 06:56:10;;;;;;;5.05;3.75;;;18.10;66.70;;;;;;5052347;28;20189;-69
2022/10/05 06:59:03;;;;;;;4.53;3.20;;;18.10;67.30;;;;;;5053551;28;20185;-69
2022/10/05 07:01:55;;;;;;;5.10;3.72;;;18.10;67.00;;;;;;5053561;28;20179;-67
2022/10/05 07:04:37;;;;;;;4.00;3.67;;;18.10;67.00;;;;;;5033617;28;20552;-68
2022/10/05 07:07:08;;;;;;;5.18;3.95;;;18.10;66.90;;;;;;5035824;28;20763;-67
2022/10/05 07:09:48;;;;;;;4.38;3.38;;;18.10;67.10;;;;;;5052618;28;20179;-67
2022/10/05 07:12:32;;;;;;;3.95;2.97;;;18.20;67.20;;;;;;5032362;28;20199;-68
2022/10/05 07:15:20;;;;;;;3.85;2.97;;;18.10;67.10;;;;;;5032272;28;20219;-68
2022/10/05 07:18:15;;;;;;;4.20;3.78;;;18.20;67.30;;;;;;5033598;28;20178;-69
2022/10/05 07:20:48;;;;;;;4.00;3.60;;;18.20;67.30;;;;;;5041054;28;20175;-69
2022/10/05 07:23:25;;;;;;;3.42;3.13;;;18.20;67.40;;;;;;5035364;28;20175;-68
2022/10/05 07:26:14;;;;;;;4.63;3.25;;;18.10;67.40;;;;;;5053511;28;20182;-68
2022/10/05 07:28:47;;;;;;;4.38;2.88;;;18.20;67.40;;;;;;5053190;28;20214;-67
2022/10/05 07:31:17;;;;;;;3.58;3.20;;;18.20;67.40;;;;;;5035380;28;20174;-68
2022/10/05 07:33:48;;;;;;;5.25;3.28;;;18.10;67.50;;;;;;5051247;28;20215;-67
2022/10/05 07:39:20;;;;;;;7.28;4.03;;;18.20;67.50;;;;;;5051536;28;20304;-72
2022/10/05 07:41:50;;;;;;;7.43;3.80;;;18.20;67.50;;;;;;5051091;28;20179;-72
2022/10/05 07:44:35;;;;;;;11.55;3.85;;;18.20;67.30;;;;;;5034897;28;20186;-72
2022/10/05 07:47:06;;;;;;;11.48;4.05;;;18.20;67.70;;;;;;5051579;28;20207;-72
2022/10/05 07:49:46;;;;;;;4.43;3.05;;;18.20;67.60;;;;;;5051335;28;20199;-72
2022/10/05 07:52:40;;;;;;;7.20;4.10;;;18.20;67.40;;;;;;5040413;28;20175;-72
2022/10/05 07:55:16;;;;;;;5.07;3.17;;;18.20;67.60;;;;;;5050818;28;20547;-72
2022/10/05 07:57:43;;;;;;;5.28;3.05;;;18.10;67.50;;;;;;5035523;28;20176;-72
2022/10/05 08:00:13;;;;;;;6.85;3.13;;;18.20;67.50;;;;;;5051120;28;20210;-70
2022/10/05 08:02:44;;;;;;;7.63;3.42;;;18.20;67.40;;;;;;5050294;28;20186;-72
2022/10/05 08:05:30;;;;;;;3.80;3.33;;;18.20;67.40;;;;;;5051190;28;20625;-72
2022/10/05 08:08:05;;;;;;;4.78;3.13;;;18.20;67.20;;;;;;5051553;28;20225;-70
2022/10/05 08:10:48;;;;;;;5.68;3.40;;;18.20;67.20;;;;;;5058929;28;20204;-70
2022/10/05 08:13:38;;;;;;;3.40;3.10;;;18.20;67.40;;;;;;5072374;28;20260;-73
2022/10/05 08:16:05;;;;;;;5.30;3.90;;;18.20;67.40;;;;;;5071978;28;20169;-71
2022/10/05 08:18:59;;;;;;;5.18;3.20;;;18.20;67.50;;;;;;5055282;28;20174;-71
2022/10/05 08:21:30;;;;;;;2.95;2.70;;;18.20;67.60;;;;;;5071659;28;20166;-71
2022/10/05 08:24:12;;;;;;;6.25;3.05;;;18.20;67.60;;;;;;5070932;28;20251;-70
2022/10/05 08:26:44;;;;;;;6.70;3.22;;;18.20;67.40;;;;;;5063706;28;20187;-68
2022/10/05 08:29:16;;;;;;;4.28;3.00;;;18.30;67.70;;;;;;5034914;28;20179;-68
2022/10/05 08:31:43;;;;;;;7.70;3.70;;;18.30;67.80;;;;;;5051789;28;20179;-68
2022/10/05 08:34:20;;;;;;;7.75;3.20;;;18.30;67.90;;;;;;5052903;28;20241;-68
2022/10/05 08:37:10;;;;;;;4.30;3.17;;;18.30;67.90;;;;;;5055917;28;20174;-68
2022/10/05 08:39:41;;;;;;;4.13;2.75;;;18.30;68.70;;;;;;5055307;28;20183;-68
2022/10/05 08:42:32;;;;;;;2.88;2.63;;;18.40;68.00;;;;;;5055729;28;20650;-70
2022/10/05 08:45:07;;;;;;;3.20;2.70;;;18.40;68.10;;;;;;5053230;28;20211;-69
2022/10/05 08:47:33;;;;;;;6.30;2.90;;;18.40;68.00;;;;;;5055836;28;20213;-69
2022/10/05 08:50:07;;;;;;;3.05;2.75;;;18.40;68.90;;;;;;5055607;28;20266;-69
2022/10/05 08:52:59;;;;;;;3.97;2.70;;;18.40;68.10;;;;;;5054863;28;20601;-69
2022/10/05 08:55:30;;;;;;;4.38;2.67;;;18.40;68.00;;;;;;5055701;28;20198;-69
2022/10/05 08:58:40;;;;;;;2.95;2.63;;;18.40;67.90;;;;;;5054219;28;20203;-69
2022/10/05 09:01:10;;;;;;;2.55;2.35;;;18.50;67.90;;;;;;5055367;28;20182;-68
2022/10/05 09:04:05;;;;;;;3.85;2.92;;;18.50;67.90;;;;;;5054453;28;20641;-68
2022/10/05 09:06:55;;;;;;;3.08;2.72;;;18.50;67.90;;;;;;5053884;28;20187;-68
2022/10/05 09:09:24;;;;;;;4.18;3.25;;;18.50;68.00;;;;;;5054811;28;20313;-69
2022/10/05 09:11:55;;;;;;;2.83;2.63;;;18.60;67.90;;;;;;5055002;28;20175;-69
2022/10/05 09:14:23;;;;;;;3.28;2.50;;;18.60;68.00;;;;;;5055363;28;20251;-69
2022/10/05 09:17:15;;;;;;;4.47;2.83;;;18.60;67.90;;;;;;5055754;28;20260;-70
2022/10/05 09:20:09;;;;;;;5.88;3.03;;;18.60;67.90;;;;;;5030795;28;20279;-71
2022/10/05 09:22:42;;;;;;;3.65;2.75;;;18.60;68.00;;;;;;5036461;28;20593;-68
2022/10/05 09:25:16;;;;;;;3.75;2.42;;;18.60;68.00;;;;;;5054555;28;20179;-68
2022/10/05 09:27:58;;;;;;;5.00;2.78;;;18.60;67.90;;;;;;5054479;28;20217;-63
2022/10/05 09:30:30;;;;;;;6.22;3.15;;;18.70;67.90;;;;;;5053332;28;20167;-72
2022/10/05 09:33:25;;;;;;;5.00;2.85;;;18.70;67.90;;;;;;5053217;28;20171;-71
2022/10/05 09:36:35;;;;;;;9.50;2.70;;;18.70;67.70;;;;;;5054261;28;20197;-71
2022/10/05 09:39:25;;;;;;;3.65;2.55;;;18.60;67.50;;;;;;5054016;28;20699;-71
2022/10/05 09:42:15;;;;;;;5.10;2.95;;;18.70;67.50;;;;;;5053449;28;20182;-72
2022/10/05 09:44:58;;;;;;;8.13;2.85;;;18.70;67.50;;;;;;5053432;28;20185;-71
2022/10/05 09:47:43;;;;;;;3.92;2.65;;;18.60;67.40;;;;;;5054673;28;20285;-72
2022/10/05 09:50:37;;;;;;;3.67;2.40;;;18.60;67.50;;;;;;5054130;28;20203;-72
2022/10/05 09:53:26;;;;;;;5.35;2.72;;;18.60;67.50;;;;;;5054074;28;20210;-72
2022/10/05 09:56:19;;;;;;;4.75;2.70;;;18.60;67.40;;;;;;5053362;28;20172;-71
2022/10/05 09:59:12;;;;;;;5.03;3.03;;;18.60;67.40;;;;;;5053896;28;20185;-73
2022/10/05 10:01:56;;;;;;;3.83;2.65;;;18.60;67.40;;;;;;5054186;28;20175;-72
2022/10/05 10:04:44;;;;;;;3.83;2.72;;;18.60;67.40;;;;;;5055042;28;20171;-72
2022/10/05 10:07:21;;;;;;;2.85;2.58;;;18.60;67.40;;;;;;5054604;28;20206;-71
2022/10/05 10:10:20;;;;;;;6.78;2.95;;;18.70;67.40;;;;;;5052945;28;20182;-71
2022/10/05 10:13:14;;;;;;;3.08;2.75;;;18.70;67.30;;;;;;5053455;28;21198;-72
2022/10/05 10:15:52;;;;;;;4.18;2.38;;;18.70;67.20;;;;;;5054058;28;20175;-73
2022/10/05 10:18:44;;;;;;;3.63;2.78;;;18.70;67.20;;;;;;5053198;28;20181;-72
2022/10/05 10:21:18;;;;;;;4.25;2.40;;;18.70;67.20;;;;;;5045891;28;20641;-72
2022/10/05 10:24:13;;;;;;;4.53;2.70;;;18.70;67.20;;;;;;5053840;28;20174;-72
2022/10/05 10:27:00;;;;;;;4.25;2.38;;;18.70;67.10;;;;;;5053410;28;20175;-71
2022/10/05 10:29:41;;;;;;;3.05;2.47;;;18.70;67.10;;;;;;5053018;28;20187;-71
2022/10/05 10:32:41;;;;;;;2.70;2.45;;;18.70;67.10;;;;;;5054066;28;20206;-72
2022/10/05 10:35:19;;;;;;;2.50;2.30;;;18.70;67.00;;;;;;5054152;28;20198;-72
2022/10/05 10:38:23;;;;;;;2.40;2.20;;;18.70;67.00;;;;;;5052468;28;20171;-72
2022/10/05 10:41:10;;;;;;;3.47;2.30;;;18.80;67.00;;;;;;5053831;28;20190;-72
2022/10/05 10:43:55;;;;;;;2.63;2.22;;;18.90;66.80;;;;;;5053641;28;20195;-72
2022/10/05 10:46:48;;;;;;;2.78;2.58;;;18.80;66.80;;;;;;5053947;28;20226;-72
2022/10/05 10:49:45;;;;;;;3.00;2.25;;;18.80;66.90;;;;;;5052776;28;20201;-72
2022/10/05 10:52:46;;;;;;;3.08;2.78;;;18.80;66.90;;;;;;5053110;28;20174;-72
2022/10/05 10:55:25;;;;;;;2.63;2.40;;;18.80;67.00;;;;;;5051840;28;20182;-72
2022/10/05 10:58:19;;;;;;;2.85;2.20;;;18.80;67.00;;;;;;5052494;28;20175;-72
2022/10/05 11:01:03;;;;;;;2.55;2.30;;;18.70;67.00;;;;;;5045269;28;20198;-72
2022/10/05 11:03:55;;;;;;;2.47;2.20;;;18.70;67.10;;;;;;5052721;28;20186;-72
2022/10/05 11:06:47;;;;;;;2.75;2.50;;;18.70;67.10;;;;;;5051676;28;20181;-71
2022/10/05 11:09:23;;;;;;;3.20;2.67;;;18.70;67.00;;;;;;5052055;28;20187;-71
2022/10/05 11:12:07;;;;;;;3.45;2.15;;;18.70;66.90;;;;;;5051786;28;20629;-72
2022/10/05 11:15:04;;;;;;;4.38;2.38;;;18.70;67.00;;;;;;5053249;28;20222;-72
2022/10/05 11:17:38;;;;;;;2.65;2.45;;;18.80;67.00;;;;;;5053606;28;20202;-73
2022/10/05 11:20:34;;;;;;;2.78;2.10;;;18.80;67.00;;;;;;5051449;28;20183;-72
2022/10/05 11:23:21;;;;;;;3.42;2.30;;;18.80;66.90;;;;;;5052198;28;20182;-72
2022/10/05 11:26:10;;;;;;;1.85;1.75;;;18.80;66.90;;;;;;5051902;28;20186;-71
2022/10/05 11:29:04;;;;;;;2.42;2.10;;;18.80;67.00;;;;;;5052039;28;20271;-72
2022/10/05 11:31:32;;;;;;;2.20;2.00;;;18.80;67.00;;;;;;5053466;28;20529;-71
2022/10/05 11:34:20;;;;;;;3.15;2.40;;;18.80;67.00;;;;;;5051131;28;20220;-71
2022/10/05 11:37:01;;;;;;;2.83;2.00;;;18.80;67.00;;;;;;5053362;28;20170;-72
2022/10/05 11:39:35;;;;;;;3.05;2.35;;;18.80;67.00;;;;;;5051220;28;20183;-72
2022/10/05 11:42:07;;;;;;;1.90;1.80;;;18.80;67.00;;;;;;5052996;28;20187;-72
2022/10/05 11:45:15;;;;;;;1.98;1.83;;;18.80;66.80;;;;;;5053181;28;20175;-72
2022/10/05 11:47:50;;;;;;;2.85;2.10;;;18.80;67.00;;;;;;5051181;28;20203;-72
2022/10/05 11:50:29;;;;;;;2.42;2.00;;;18.80;67.10;;;;;;5051724;28;20177;-71
2022/10/05 11:53:18;;;;;;;1.92;1.83;;;18.80;67.00;;;;;;5053077;28;20182;-71
2022/10/05 11:56:02;;;;;;;2.70;2.50;;;18.80;66.90;;;;;;5052315;28;20171;-72
2022/10/05 11:58:30;;;;;;;2.85;2.55;;;18.70;67.00;;;;;;5053034;28;20182;-72
2022/10/05 12:01:10;;;;;;;2.63;2.20;;;18.80;67.00;;;;;;5050857;28;20182;-72
2022/10/05 12:03:56;;;;;;;2.03;1.92;;;18.80;66.90;;;;;;5052942;28;20199;-72
2022/10/05 12:06:34;;;;;;;2.22;2.03;;;18.80;66.90;;;;;;5051759;28;20230;-71
2022/10/05 12:09:12;;;;;;;2.05;1.92;;;18.80;66.90;;;;;;5051568;28;20288;-71
2022/10/05 12:12:06;;;;;;;1.83;1.73;;;18.80;66.90;;;;;;5052706;28;20626;-71
2022/10/05 12:14:56;;;;;;;3.95;2.00;;;18.80;66.90;;;;;;5051352;28;20223;-72
2022/10/05 12:17:34;;;;;;;2.95;2.00;;;18.80;66.90;;;;;;5051842;28;20179;-73
2022/10/05 12:20:12;;;;;;;2.30;2.10;;;18.80;67.00;;;;;;5051381;28;20247;-72
2022/10/05 12:22:58;;;;;;;2.13;1.92;;;18.80;66.80;;;;;;5050682;28;20660;-72
2022/10/05 12:25:37;;;;;;;2.30;2.10;;;18.80;66.90;;;;;;5051426;28;20179;-71
2022/10/05 12:28:11;;;;;;;2.53;2.15;;;18.80;66.80;;;;;;5051214;28;20211;-71
2022/10/05 12:31:07;;;;;;;2.40;2.20;;;18.90;66.70;;;;;;5050969;28;20333;-71
2022/10/05 12:33:41;;;;;;;2.08;1.88;;;18.90;66.70;;;;;;5052536;28;20690;-71
2022/10/05 12:36:10;;;;;;;2.10;1.90;;;18.90;66.70;;;;;;5050373;28;20249;-71
2022/10/05 12:39:04;;;;;;;2.30;1.90;;;19.00;66.70;;;;;;5052637;28;20199;-72
2022/10/05 12:41:30;;;;;;;2.22;1.77;;;19.00;66.60;;;;;;5051376;28;20255;-72
2022/10/05 12:44:04;;;;;;;3.50;2.00;;;19.00;66.60;;;;;;5051713;28;20258;-71
2022/10/05 12:46:45;;;;;;;2.13;1.90;;;19.00;66.60;;;;;;5052328;28;20625;-72
2022/10/05 12:49:29;;;;;;;2.17;1.90;;;19.00;66.60;;;;;;5051133;28;20191;-72
2022/10/05 12:52:03;;;;;;;1.98;1.77;;;19.10;66.60;;;;;;5050604;28;20277;-72
2022/10/05 12:54:47;;;;;;;1.88;1.77;;;19.00;66.50;;;;;;5051202;28;20171;-72
2022/10/05 12:57:43;;;;;;;1.80;1.70;;;19.00;66.60;;;;;;5051468;28;20269;-73
2022/10/05 13:00:16;;;;;;;2.05;1.85;;;19.00;66.60;;;;;;5051964;28;20661;-72
2022/10/05 13:02:45;;;;;;;1.90;1.80;;;19.00;66.70;;;;;;5051258;28;20201;-73
2022/10/05 13:05:10;;;;;;;2.10;1.90;;;19.10;66.70;;;;;;5051332;28;20193;-72
2022/10/05 13:07:44;;;;;;;2.28;1.83;;;19.10;66.60;;;;;;5051884;28;20219;-71
2022/10/05 13:10:29;;;;;;;2.67;1.70;;;19.10;66.60;;;;;;5051906;28;20507;-72
2022/10/05 13:13:15;;;;;;;2.13;1.95;;;19.10;66.60;;;;;;5051382;28;20302;-72
2022/10/05 13:15:52;;;;;;;2.47;2.22;;;19.10;66.60;;;;;;5052368;28;20216;-73
2022/10/05 13:18:24;;;;;;;1.52;1.42;;;19.10;66.50;;;;;;5051318;28;20190;-73
2022/10/05 13:21:13;;;;;;;1.95;1.85;;;19.10;66.50;;;;;;5053800;28;20541;-73
2022/10/05 13:23:57;;;;;;;1.83;1.70;;;19.10;66.60;;;;;;5055328;28;20532;-72
2022/10/05 13:26:40;;;;;;;2.53;1.73;;;19.10;66.60;;;;;;5054031;28;20197;-72
2022/10/05 13:29:32;;;;;;;1.80;1.63;;;19.10;66.50;;;;;;5054135;28;20226;-71
2022/10/05 13:32:15;;;;;;;1.77;1.67;;;19.20;66.30;;;;;;5053401;28;20179;-71
2022/10/05 13:34:48;;;;;;;2.55;1.98;;;19.30;66.30;;;;;;5054438;28;20258;-72
2022/10/05 13:37:56;;;;;;;1.92;1.65;;;19.50;65.90;;;;;;5054188;28;20183;-72
2022/10/05 13:40:49;;;;;;;2.15;1.92;;;19.40;65.70;;;;;;5053075;28;20707;-73
2022/10/05 13:43:29;;;;;;;2.95;1.80;;;19.50;65.70;;;;;;5048839;28;20187;-73
2022/10/05 13:46:06;;;;;;;1.73;1.58;;;19.60;65.60;;;;;;5054335;28;20268;-73
2022/10/05 13:49:02;;;;;;;1.77;1.67;;;19.60;65.50;;;;;;5055234;28;20213;-71
2022/10/05 13:51:40;;;;;;;2.05;1.70;;;19.50;65.50;;;;;;5055365;28;20179;-72
2022/10/05 13:54:15;;;;;;;1.52;1.42;;;19.40;65.70;;;;;;5052988;28;20573;-72
2022/10/05 13:56:53;;;;;;;1.73;1.63;;;19.50;65.80;;;;;;5054037;28;20533;-71
2022/10/05 13:59:29;;;;;;;1.65;1.55;;;19.60;65.70;;;;;;5053746;28;20175;-72